sensor_id;sensor_type;location;lat;lon;timestamp;P1;durP1;ratioP1;P2;durP2;ratioP2
50605;SDS011;36557;53.572;10.170;2023-05-10T00:01:48;6.40;;;2.50;;
50605;SDS011;36557;53.572;10.170;2023-05-10T00:04:14;5.40;;;2.40;;
50605;SDS011;36557;53.572;10.170;2023-05-10T00:06:40;6.90;;;2.60;;
50605;SDS011;36557;53.572;10.170;2023-05-10T00:09:06;5.07;;;2.50;;
50605;SDS011;36557;53.572;10.170;2023-05-10T00:11:32;4.75;;;2.53;;
50605;SDS011;36557;53.572;10.170;2023-05-10T00:13:58;5.28;;;2.45;;
50605;SDS011;36557;53.572;10.170;2023-05-10T00:16:24;5.03;;;2.40;;
50605;SDS011;36557;53.572;10.170;2023-05-10T00:18:50;7.40;;;2.72;;
50605;SDS011;36557;53.572;10.170;2023-05-10T00:21:16;3.85;;;2.33;;
50605;SDS011;36557;53.572;10.170;2023-05-10T00:23:42;7.03;;;2.40;;
50605;SDS011;36557;53.572;10.170;2023-05-10T00:26:08;4.97;;;2.75;;
50605;SDS011;36557;53.572;10.170;2023-05-10T00:28:34;6.03;;;2.50;;
50605;SDS011;36557;53.572;10.170;2023-05-10T00:31:00;4.70;;;2.55;;
50605;SDS011;36557;53.572;10.170;2023-05-10T00:33:27;4.20;;;2.97;;
50605;SDS011;36557;53.572;10.170;2023-05-10T00:35:53;3.78;;;2.42;;
50605;SDS011;36557;53.572;10.170;2023-05-10T00:38:19;4.68;;;2.40;;
50605;SDS011;36557;53.572;10.170;2023-05-10T00:40:45;6.35;;;2.67;;
50605;SDS011;36557;53.572;10.170;2023-05-10T00:43:11;6.68;;;2.50;;
50605;SDS011;36557;53.572;10.170;2023-05-10T00:45:37;6.03;;;2.80;;
50605;SDS011;36557;53.572;10.170;2023-05-10T00:48:04;10.73;;;3.22;;
50605;SDS011;36557;53.572;10.170;2023-05-10T00:50:31;6.63;;;2.72;;
50605;SDS011;36557;53.572;10.170;2023-05-10T00:52:58;4.93;;;2.38;;
50605;SDS011;36557;53.572;10.170;2023-05-10T00:55:25;4.60;;;2.33;;
50605;SDS011;36557;53.572;10.170;2023-05-10T00:57:52;4.93;;;2.58;;
50605;SDS011;36557;53.572;10.170;2023-05-10T01:00:18;5.75;;;2.95;;
50605;SDS011;36557;53.572;10.170;2023-05-10T01:02:45;5.22;;;2.90;;
50605;SDS011;36557;53.572;10.170;2023-05-10T01:05:11;5.60;;;2.55;;
50605;SDS011;36557;53.572;10.170;2023-05-10T01:07:38;5.70;;;2.38;;
50605;SDS011;36557;53.572;10.170;2023-05-10T01:10:05;4.47;;;2.60;;
50605;SDS011;36557;53.572;10.170;2023-05-10T01:12:31;7.03;;;2.70;;
50605;SDS011;36557;53.572;10.170;2023-05-10T01:14:57;5.50;;;2.72;;
50605;SDS011;36557;53.572;10.170;2023-05-10T01:17:23;5.32;;;2.50;;
50605;SDS011;36557;53.572;10.170;2023-05-10T01:19:50;4.63;;;2.42;;
50605;SDS011;36557;53.572;10.170;2023-05-10T01:33:01;3.75;;;2.67;;
50605;SDS011;36557;53.572;10.170;2023-05-10T01:35:40;4.03;;;2.70;;
50605;SDS011;36557;53.572;10.170;2023-05-10T01:40:42;6.18;;;2.88;;
50605;SDS011;36557;53.572;10.170;2023-05-10T01:43:13;4.10;;;2.42;;
50605;SDS011;36557;53.572;10.170;2023-05-10T01:45:50;5.55;;;2.70;;
50605;SDS011;36557;53.572;10.170;2023-05-10T01:48:20;5.80;;;2.58;;
50605;SDS011;36557;53.572;10.170;2023-05-10T01:50:48;9.70;;;3.00;;
50605;SDS011;36557;53.572;10.170;2023-05-10T01:53:17;4.38;;;2.45;;
50605;SDS011;36557;53.572;10.170;2023-05-10T01:55:47;7.93;;;2.90;;
50605;SDS011;36557;53.572;10.170;2023-05-10T01:58:15;4.78;;;2.83;;
50605;SDS011;36557;53.572;10.170;2023-05-10T02:00:43;7.90;;;2.97;;
50605;SDS011;36557;53.572;10.170;2023-05-10T02:03:10;3.78;;;2.53;;
50605;SDS011;36557;53.572;10.170;2023-05-10T02:05:37;7.47;;;2.67;;
50605;SDS011;36557;53.572;10.170;2023-05-10T02:08:07;8.40;;;2.75;;
50605;SDS011;36557;53.572;10.170;2023-05-10T02:10:36;5.43;;;2.92;;
50605;SDS011;36557;53.572;10.170;2023-05-10T02:13:03;3.88;;;2.60;;
50605;SDS011;36557;53.572;10.170;2023-05-10T02:15:31;5.22;;;2.60;;
50605;SDS011;36557;53.572;10.170;2023-05-10T02:17:58;4.30;;;2.70;;
50605;SDS011;36557;53.572;10.170;2023-05-10T02:20:25;6.45;;;2.80;;
50605;SDS011;36557;53.572;10.170;2023-05-10T02:22:52;6.82;;;2.78;;
50605;SDS011;36557;53.572;10.170;2023-05-10T02:25:19;4.22;;;2.63;;
50605;SDS011;36557;53.572;10.170;2023-05-10T02:27:46;7.28;;;2.58;;
50605;SDS011;36557;53.572;10.170;2023-05-10T02:30:12;4.20;;;2.63;;
50605;SDS011;36557;53.572;10.170;2023-05-10T02:32:39;4.05;;;2.20;;
50605;SDS011;36557;53.572;10.170;2023-05-10T02:35:05;5.15;;;2.65;;
50605;SDS011;36557;53.572;10.170;2023-05-10T02:37:33;6.68;;;2.80;;
50605;SDS011;36557;53.572;10.170;2023-05-10T02:40:00;4.82;;;2.88;;
50605;SDS011;36557;53.572;10.170;2023-05-10T02:42:28;4.35;;;2.33;;
50605;SDS011;36557;53.572;10.170;2023-05-10T02:44:59;4.38;;;2.95;;
50605;SDS011;36557;53.572;10.170;2023-05-10T02:47:25;5.47;;;2.90;;
50605;SDS011;36557;53.572;10.170;2023-05-10T02:49:52;5.30;;;2.60;;
50605;SDS011;36557;53.572;10.170;2023-05-10T02:52:28;5.25;;;2.90;;
50605;SDS011;36557;53.572;10.170;2023-05-10T02:54:55;4.22;;;2.72;;
50605;SDS011;36557;53.572;10.170;2023-05-10T02:57:22;6.22;;;2.65;;
50605;SDS011;36557;53.572;10.170;2023-05-10T02:59:50;5.40;;;2.83;;
50605;SDS011;36557;53.572;10.170;2023-05-10T03:02:16;4.15;;;2.72;;
50605;SDS011;36557;53.572;10.170;2023-05-10T03:04:42;3.83;;;2.75;;
50605;SDS011;36557;53.572;10.170;2023-05-10T03:07:09;5.45;;;2.42;;
50605;SDS011;36557;53.572;10.170;2023-05-10T03:09:35;6.93;;;3.20;;
50605;SDS011;36557;53.572;10.170;2023-05-10T03:12:11;5.82;;;2.83;;
50605;SDS011;36557;53.572;10.170;2023-05-10T03:14:45;5.93;;;2.70;;
50605;SDS011;36557;53.572;10.170;2023-05-10T03:17:18;5.43;;;2.88;;
50605;SDS011;36557;53.572;10.170;2023-05-10T03:19:56;4.07;;;2.95;;
50605;SDS011;36557;53.572;10.170;2023-05-10T03:22:36;4.22;;;2.92;;
50605;SDS011;36557;53.572;10.170;2023-05-10T03:25:04;6.70;;;3.40;;
50605;SDS011;36557;53.572;10.170;2023-05-10T03:27:31;4.22;;;2.63;;
50605;SDS011;36557;53.572;10.170;2023-05-10T03:29:57;4.88;;;2.70;;
50605;SDS011;36557;53.572;10.170;2023-05-10T03:32:24;4.18;;;2.50;;
50605;SDS011;36557;53.572;10.170;2023-05-10T03:34:52;5.88;;;3.00;;
50605;SDS011;36557;53.572;10.170;2023-05-10T03:37:18;5.78;;;2.70;;
50605;SDS011;36557;53.572;10.170;2023-05-10T03:39:44;6.03;;;2.65;;
50605;SDS011;36557;53.572;10.170;2023-05-10T03:42:10;7.38;;;3.03;;
50605;SDS011;36557;53.572;10.170;2023-05-10T03:44:37;6.35;;;2.80;;
50605;SDS011;36557;53.572;10.170;2023-05-10T03:47:03;3.83;;;2.65;;
50605;SDS011;36557;53.572;10.170;2023-05-10T03:49:29;4.55;;;2.50;;
50605;SDS011;36557;53.572;10.170;2023-05-10T03:51:55;5.35;;;2.78;;
50605;SDS011;36557;53.572;10.170;2023-05-10T03:54:21;5.25;;;3.00;;
50605;SDS011;36557;53.572;10.170;2023-05-10T03:56:48;4.80;;;3.22;;
50605;SDS011;36557;53.572;10.170;2023-05-10T03:59:14;4.97;;;2.88;;
50605;SDS011;36557;53.572;10.170;2023-05-10T04:01:40;5.18;;;2.90;;
50605;SDS011;36557;53.572;10.170;2023-05-10T04:04:06;4.28;;;3.08;;
50605;SDS011;36557;53.572;10.170;2023-05-10T04:06:32;6.60;;;3.08;;
50605;SDS011;36557;53.572;10.170;2023-05-10T04:08:58;5.15;;;2.90;;
50605;SDS011;36557;53.572;10.170;2023-05-10T04:11:28;5.07;;;2.70;;
50605;SDS011;36557;53.572;10.170;2023-05-10T04:13:54;7.72;;;3.17;;
50605;SDS011;36557;53.572;10.170;2023-05-10T04:16:20;5.97;;;2.50;;
50605;SDS011;36557;53.572;10.170;2023-05-10T04:18:47;4.18;;;3.08;;
50605;SDS011;36557;53.572;10.170;2023-05-10T04:21:13;4.82;;;2.70;;
50605;SDS011;36557;53.572;10.170;2023-05-10T04:23:40;5.53;;;3.30;;
50605;SDS011;36557;53.572;10.170;2023-05-10T04:26:06;6.63;;;3.25;;
50605;SDS011;36557;53.572;10.170;2023-05-10T04:28:32;4.45;;;2.75;;
50605;SDS011;36557;53.572;10.170;2023-05-10T04:31:05;4.57;;;3.03;;
50605;SDS011;36557;53.572;10.170;2023-05-10T04:33:31;6.70;;;2.97;;
50605;SDS011;36557;53.572;10.170;2023-05-10T04:35:58;4.30;;;2.88;;
50605;SDS011;36557;53.572;10.170;2023-05-10T04:38:24;5.05;;;2.85;;
50605;SDS011;36557;53.572;10.170;2023-05-10T04:40:50;5.05;;;3.17;;
50605;SDS011;36557;53.572;10.170;2023-05-10T04:43:16;6.00;;;3.05;;
50605;SDS011;36557;53.572;10.170;2023-05-10T04:45:42;7.78;;;2.78;;
50605;SDS011;36557;53.572;10.170;2023-05-10T04:48:08;5.93;;;2.75;;
50605;SDS011;36557;53.572;10.170;2023-05-10T04:50:34;5.00;;;3.10;;
50605;SDS011;36557;53.572;10.170;2023-05-10T04:53:01;6.32;;;3.90;;
50605;SDS011;36557;53.572;10.170;2023-05-10T04:57:53;6.10;;;3.20;;
50605;SDS011;36557;53.572;10.170;2023-05-10T05:00:21;6.70;;;3.60;;
50605;SDS011;36557;53.572;10.170;2023-05-10T05:02:47;7.13;;;5.00;;
50605;SDS011;36557;53.572;10.170;2023-05-10T05:05:14;5.93;;;3.13;;
50605;SDS011;36557;53.572;10.170;2023-05-10T05:07:40;4.53;;;3.00;;
50605;SDS011;36557;53.572;10.170;2023-05-10T05:10:06;4.85;;;3.10;;
50605;SDS011;36557;53.572;10.170;2023-05-10T05:12:32;5.90;;;3.40;;
50605;SDS011;36557;53.572;10.170;2023-05-10T05:14:58;3.30;;;2.50;;
50605;SDS011;36557;53.572;10.170;2023-05-10T05:17:25;5.95;;;2.90;;
50605;SDS011;36557;53.572;10.170;2023-05-10T05:19:51;4.97;;;3.50;;
50605;SDS011;36557;53.572;10.170;2023-05-10T05:22:17;5.10;;;3.13;;
50605;SDS011;36557;53.572;10.170;2023-05-10T05:24:44;6.07;;;3.10;;
50605;SDS011;36557;53.572;10.170;2023-05-10T05:27:10;5.38;;;2.95;;
50605;SDS011;36557;53.572;10.170;2023-05-10T05:29:36;3.70;;;3.03;;
50605;SDS011;36557;53.572;10.170;2023-05-10T05:32:02;4.82;;;3.30;;
50605;SDS011;36557;53.572;10.170;2023-05-10T05:34:28;4.90;;;3.13;;
50605;SDS011;36557;53.572;10.170;2023-05-10T05:36:54;4.65;;;2.85;;
50605;SDS011;36557;53.572;10.170;2023-05-10T05:39:21;6.35;;;3.00;;
50605;SDS011;36557;53.572;10.170;2023-05-10T05:41:47;4.07;;;2.80;;
50605;SDS011;36557;53.572;10.170;2023-05-10T05:44:13;3.92;;;2.78;;
50605;SDS011;36557;53.572;10.170;2023-05-10T05:46:39;4.75;;;2.85;;
50605;SDS011;36557;53.572;10.170;2023-05-10T05:49:05;5.13;;;2.80;;
50605;SDS011;36557;53.572;10.170;2023-05-10T05:51:31;7.18;;;2.95;;
50605;SDS011;36557;53.572;10.170;2023-05-10T05:53:57;6.00;;;3.05;;
50605;SDS011;36557;53.572;10.170;2023-05-10T05:56:23;5.45;;;3.05;;
50605;SDS011;36557;53.572;10.170;2023-05-10T05:58:50;5.07;;;2.83;;
50605;SDS011;36557;53.572;10.170;2023-05-10T06:01:16;5.75;;;2.83;;
50605;SDS011;36557;53.572;10.170;2023-05-10T06:03:42;5.68;;;3.08;;
50605;SDS011;36557;53.572;10.170;2023-05-10T06:06:08;4.85;;;3.10;;
50605;SDS011;36557;53.572;10.170;2023-05-10T06:08:34;4.88;;;2.70;;
50605;SDS011;36557;53.572;10.170;2023-05-10T06:11:01;4.18;;;2.83;;
50605;SDS011;36557;53.572;10.170;2023-05-10T06:13:29;4.97;;;3.38;;
50605;SDS011;36557;53.572;10.170;2023-05-10T06:16:00;5.65;;;3.60;;
50605;SDS011;36557;53.572;10.170;2023-05-10T06:18:26;6.72;;;2.83;;
50605;SDS011;36557;53.572;10.170;2023-05-10T06:20:52;4.53;;;2.78;;
50605;SDS011;36557;53.572;10.170;2023-05-10T06:23:18;4.68;;;3.30;;
50605;SDS011;36557;53.572;10.170;2023-05-10T06:25:44;6.68;;;3.00;;
50605;SDS011;36557;53.572;10.170;2023-05-10T06:28:10;4.35;;;2.67;;
50605;SDS011;36557;53.572;10.170;2023-05-10T06:30:36;5.72;;;3.13;;
50605;SDS011;36557;53.572;10.170;2023-05-10T06:33:03;4.60;;;3.15;;
50605;SDS011;36557;53.572;10.170;2023-05-10T06:35:29;4.60;;;3.00;;
50605;SDS011;36557;53.572;10.170;2023-05-10T06:37:54;3.60;;;2.92;;
50605;SDS011;36557;53.572;10.170;2023-05-10T06:40:20;8.10;;;3.20;;
50605;SDS011;36557;53.572;10.170;2023-05-10T06:42:46;4.13;;;2.97;;
50605;SDS011;36557;53.572;10.170;2023-05-10T06:45:13;6.05;;;3.50;;
50605;SDS011;36557;53.572;10.170;2023-05-10T06:47:40;6.43;;;3.17;;
50605;SDS011;36557;53.572;10.170;2023-05-10T06:50:07;6.85;;;2.78;;
50605;SDS011;36557;53.572;10.170;2023-05-10T06:52:33;5.38;;;3.08;;
50605;SDS011;36557;53.572;10.170;2023-05-10T06:54:59;4.88;;;2.95;;
50605;SDS011;36557;53.572;10.170;2023-05-10T06:57:25;6.53;;;3.20;;
50605;SDS011;36557;53.572;10.170;2023-05-10T06:59:51;4.30;;;2.50;;
50605;SDS011;36557;53.572;10.170;2023-05-10T07:02:17;3.88;;;2.67;;
50605;SDS011;36557;53.572;10.170;2023-05-10T07:04:42;5.38;;;2.88;;
50605;SDS011;36557;53.572;10.170;2023-05-10T07:07:08;4.30;;;2.97;;
50605;SDS011;36557;53.572;10.170;2023-05-10T07:09:34;5.97;;;2.92;;
50605;SDS011;36557;53.572;10.170;2023-05-10T07:12:00;5.45;;;3.03;;
50605;SDS011;36557;53.572;10.170;2023-05-10T07:14:27;3.83;;;2.80;;
50605;SDS011;36557;53.572;10.170;2023-05-10T07:16:53;4.15;;;2.80;;
50605;SDS011;36557;53.572;10.170;2023-05-10T07:19:18;5.65;;;2.95;;
50605;SDS011;36557;53.572;10.170;2023-05-10T07:21:44;4.72;;;2.88;;
50605;SDS011;36557;53.572;10.170;2023-05-10T07:24:10;3.08;;;2.60;;
50605;SDS011;36557;53.572;10.170;2023-05-10T07:26:36;4.82;;;2.88;;
50605;SDS011;36557;53.572;10.170;2023-05-10T07:29:02;4.10;;;2.85;;
50605;SDS011;36557;53.572;10.170;2023-05-10T07:31:27;9.23;;;2.88;;
50605;SDS011;36557;53.572;10.170;2023-05-10T07:33:53;5.68;;;2.70;;
50605;SDS011;36557;53.572;10.170;2023-05-10T07:36:19;4.00;;;2.95;;
50605;SDS011;36557;53.572;10.170;2023-05-10T07:38:45;5.93;;;3.08;;
50605;SDS011;36557;53.572;10.170;2023-05-10T07:41:14;7.43;;;3.00;;
50605;SDS011;36557;53.572;10.170;2023-05-10T07:43:39;4.25;;;2.88;;
50605;SDS011;36557;53.572;10.170;2023-05-10T07:46:05;3.58;;;2.72;;
50605;SDS011;36557;53.572;10.170;2023-05-10T07:48:31;6.82;;;2.78;;
50605;SDS011;36557;53.572;10.170;2023-05-10T07:50:56;4.07;;;3.08;;
50605;SDS011;36557;53.572;10.170;2023-05-10T07:53:22;3.78;;;2.78;;
50605;SDS011;36557;53.572;10.170;2023-05-10T07:55:51;6.10;;;3.00;;
50605;SDS011;36557;53.572;10.170;2023-05-10T07:58:21;5.18;;;2.83;;
50605;SDS011;36557;53.572;10.170;2023-05-10T08:00:47;5.32;;;2.75;;
50605;SDS011;36557;53.572;10.170;2023-05-10T08:03:14;3.33;;;2.38;;
50605;SDS011;36557;53.572;10.170;2023-05-10T08:05:40;4.50;;;3.30;;
50605;SDS011;36557;53.572;10.170;2023-05-10T08:08:06;4.72;;;2.80;;
50605;SDS011;36557;53.572;10.170;2023-05-10T08:10:31;4.85;;;3.47;;
50605;SDS011;36557;53.572;10.170;2023-05-10T08:12:57;4.88;;;2.92;;
50605;SDS011;36557;53.572;10.170;2023-05-10T08:15:23;6.43;;;3.15;;
50605;SDS011;36557;53.572;10.170;2023-05-10T08:17:50;4.63;;;2.92;;
50605;SDS011;36557;53.572;10.170;2023-05-10T08:20:16;5.57;;;2.88;;
50605;SDS011;36557;53.572;10.170;2023-05-10T08:22:44;4.60;;;3.10;;
50605;SDS011;36557;53.572;10.170;2023-05-10T08:25:10;5.97;;;3.03;;
50605;SDS011;36557;53.572;10.170;2023-05-10T08:27:36;4.05;;;2.75;;
50605;SDS011;36557;53.572;10.170;2023-05-10T08:30:02;3.75;;;2.67;;
50605;SDS011;36557;53.572;10.170;2023-05-10T08:32:27;6.00;;;2.70;;
50605;SDS011;36557;53.572;10.170;2023-05-10T08:34:53;4.10;;;2.58;;
50605;SDS011;36557;53.572;10.170;2023-05-10T08:37:20;5.25;;;2.72;;
50605;SDS011;36557;53.572;10.170;2023-05-10T08:39:47;5.25;;;3.10;;
50605;SDS011;36557;53.572;10.170;2023-05-10T08:42:13;6.32;;;3.10;;
50605;SDS011;36557;53.572;10.170;2023-05-10T08:44:45;6.82;;;2.83;;
50605;SDS011;36557;53.572;10.170;2023-05-10T08:47:13;4.35;;;3.08;;
50605;SDS011;36557;53.572;10.170;2023-05-10T08:49:43;6.03;;;2.90;;
50605;SDS011;36557;53.572;10.170;2023-05-10T08:52:12;3.70;;;2.63;;
50605;SDS011;36557;53.572;10.170;2023-05-10T08:54:41;4.65;;;3.40;;
50605;SDS011;36557;53.572;10.170;2023-05-10T08:57:07;8.30;;;3.33;;
50605;SDS011;36557;53.572;10.170;2023-05-10T08:59:33;5.57;;;3.13;;
50605;SDS011;36557;53.572;10.170;2023-05-10T09:01:59;5.70;;;2.83;;
50605;SDS011;36557;53.572;10.170;2023-05-10T09:04:26;7.55;;;3.45;;
50605;SDS011;36557;53.572;10.170;2023-05-10T09:06:53;4.07;;;3.00;;
50605;SDS011;36557;53.572;10.170;2023-05-10T09:09:19;5.38;;;3.22;;
50605;SDS011;36557;53.572;10.170;2023-05-10T09:11:46;4.55;;;2.88;;
50605;SDS011;36557;53.572;10.170;2023-05-10T09:14:12;5.63;;;3.00;;
50605;SDS011;36557;53.572;10.170;2023-05-10T09:16:40;4.40;;;3.38;;
50605;SDS011;36557;53.572;10.170;2023-05-10T09:19:06;4.10;;;3.22;;
50605;SDS011;36557;53.572;10.170;2023-05-10T09:21:34;5.60;;;3.25;;
50605;SDS011;36557;53.572;10.170;2023-05-10T09:24:05;5.93;;;3.42;;
50605;SDS011;36557;53.572;10.170;2023-05-10T09:26:31;8.85;;;3.28;;
50605;SDS011;36557;53.572;10.170;2023-05-10T09:28:58;3.55;;;3.10;;
50605;SDS011;36557;53.572;10.170;2023-05-10T09:31:24;6.15;;;3.47;;
50605;SDS011;36557;53.572;10.170;2023-05-10T09:34:15;5.05;;;3.45;;
50605;SDS011;36557;53.572;10.170;2023-05-10T09:36:52;6.75;;;3.63;;
50605;SDS011;36557;53.572;10.170;2023-05-10T09:39:35;4.18;;;2.97;;
50605;SDS011;36557;53.572;10.170;2023-05-10T09:42:05;4.15;;;3.22;;
50605;SDS011;36557;53.572;10.170;2023-05-10T09:44:33;4.38;;;3.33;;
50605;SDS011;36557;53.572;10.170;2023-05-10T09:46:59;5.03;;;3.05;;
50605;SDS011;36557;53.572;10.170;2023-05-10T09:49:28;5.07;;;3.65;;
50605;SDS011;36557;53.572;10.170;2023-05-10T09:52:04;8.05;;;3.78;;
50605;SDS011;36557;53.572;10.170;2023-05-10T09:54:31;5.55;;;3.70;;
50605;SDS011;36557;53.572;10.170;2023-05-10T09:56:57;4.63;;;3.05;;
50605;SDS011;36557;53.572;10.170;2023-05-10T09:59:26;6.80;;;3.60;;
50605;SDS011;36557;53.572;10.170;2023-05-10T10:01:59;8.63;;;3.80;;
50605;SDS011;36557;53.572;10.170;2023-05-10T10:04:25;4.63;;;3.20;;
50605;SDS011;36557;53.572;10.170;2023-05-10T10:06:58;5.47;;;3.10;;
50605;SDS011;36557;53.572;10.170;2023-05-10T10:09:28;5.63;;;3.38;;
50605;SDS011;36557;53.572;10.170;2023-05-10T10:11:54;7.55;;;3.50;;
50605;SDS011;36557;53.572;10.170;2023-05-10T10:14:22;5.00;;;3.67;;
50605;SDS011;36557;53.572;10.170;2023-05-10T10:16:49;6.35;;;3.53;;
50605;SDS011;36557;53.572;10.170;2023-05-10T10:19:16;6.60;;;3.75;;
50605;SDS011;36557;53.572;10.170;2023-05-10T10:21:46;12.43;;;4.22;;
50605;SDS011;36557;53.572;10.170;2023-05-10T10:24:12;7.78;;;3.97;;
50605;SDS011;36557;53.572;10.170;2023-05-10T10:26:38;6.07;;;3.72;;
50605;SDS011;36557;53.572;10.170;2023-05-10T10:29:29;5.88;;;3.83;;
50605;SDS011;36557;53.572;10.170;2023-05-10T10:34:28;7.60;;;4.82;;
50605;SDS011;36557;53.572;10.170;2023-05-10T10:36:55;6.00;;;3.80;;
50605;SDS011;36557;53.572;10.170;2023-05-10T10:39:22;6.35;;;4.13;;
50605;SDS011;36557;53.572;10.170;2023-05-10T10:41:52;7.22;;;4.88;;
50605;SDS011;36557;53.572;10.170;2023-05-10T10:46:59;9.98;;;4.90;;
50605;SDS011;36557;53.572;10.170;2023-05-10T10:52:33;10.45;;;5.75;;
50605;SDS011;36557;53.572;10.170;2023-05-10T10:55:03;7.03;;;4.75;;
50605;SDS011;36557;53.572;10.170;2023-05-10T10:57:42;6.65;;;5.40;;
50605;SDS011;36557;53.572;10.170;2023-05-10T11:00:29;8.57;;;5.97;;
50605;SDS011;36557;53.572;10.170;2023-05-10T11:07:58;8.98;;;6.13;;
50605;SDS011;36557;53.572;10.170;2023-05-10T11:10:26;8.32;;;5.20;;
50605;SDS011;36557;53.572;10.170;2023-05-10T11:13:05;5.65;;;4.97;;
50605;SDS011;36557;53.572;10.170;2023-05-10T11:15:32;7.55;;;5.10;;
50605;SDS011;36557;53.572;10.170;2023-05-10T11:18:24;7.68;;;5.90;;
50605;SDS011;36557;53.572;10.170;2023-05-10T11:20:50;5.13;;;4.63;;
50605;SDS011;36557;53.572;10.170;2023-05-10T11:23:17;5.07;;;4.55;;
50605;SDS011;36557;53.572;10.170;2023-05-10T11:25:43;6.05;;;4.75;;
50605;SDS011;36557;53.572;10.170;2023-05-10T11:28:10;6.95;;;4.70;;
50605;SDS011;36557;53.572;10.170;2023-05-10T11:30:39;7.10;;;4.85;;
50605;SDS011;36557;53.572;10.170;2023-05-10T11:33:06;6.68;;;4.70;;
50605;SDS011;36557;53.572;10.170;2023-05-10T11:35:39;6.10;;;4.88;;
50605;SDS011;36557;53.572;10.170;2023-05-10T11:38:09;8.40;;;4.65;;
50605;SDS011;36557;53.572;10.170;2023-05-10T11:40:37;6.18;;;4.45;;
50605;SDS011;36557;53.572;10.170;2023-05-10T11:43:03;6.43;;;4.50;;
50605;SDS011;36557;53.572;10.170;2023-05-10T11:48:58;8.93;;;5.13;;
50605;SDS011;36557;53.572;10.170;2023-05-10T11:51:39;7.90;;;4.85;;
50605;SDS011;36557;53.572;10.170;2023-05-10T11:54:07;6.20;;;5.22;;
50605;SDS011;36557;53.572;10.170;2023-05-10T11:56:34;8.70;;;4.90;;
50605;SDS011;36557;53.572;10.170;2023-05-10T11:59:01;6.63;;;5.05;;
50605;SDS011;36557;53.572;10.170;2023-05-10T12:01:27;6.40;;;5.07;;
50605;SDS011;36557;53.572;10.170;2023-05-10T12:03:54;8.57;;;5.28;;
50605;SDS011;36557;53.572;10.170;2023-05-10T12:06:25;7.53;;;5.05;;
50605;SDS011;36557;53.572;10.170;2023-05-10T12:08:52;8.85;;;5.35;;
50605;SDS011;36557;53.572;10.170;2023-05-10T12:11:18;6.10;;;5.13;;
50605;SDS011;36557;53.572;10.170;2023-05-10T12:13:46;7.40;;;5.18;;
50605;SDS011;36557;53.572;10.170;2023-05-10T12:16:16;5.80;;;4.32;;
50605;SDS011;36557;53.572;10.170;2023-05-10T12:18:44;9.00;;;5.68;;
50605;SDS011;36557;53.572;10.170;2023-05-10T12:21:11;7.20;;;5.25;;
50605;SDS011;36557;53.572;10.170;2023-05-10T12:23:40;8.68;;;5.25;;
50605;SDS011;36557;53.572;10.170;2023-05-10T12:26:08;9.40;;;4.97;;
50605;SDS011;36557;53.572;10.170;2023-05-10T12:28:35;8.88;;;5.70;;
50605;SDS011;36557;53.572;10.170;2023-05-10T12:31:01;7.70;;;5.45;;
50605;SDS011;36557;53.572;10.170;2023-05-10T12:33:27;6.97;;;5.85;;
50605;SDS011;36557;53.572;10.170;2023-05-10T12:36:04;7.28;;;5.85;;
50605;SDS011;36557;53.572;10.170;2023-05-10T12:38:32;7.72;;;5.72;;
50605;SDS011;36557;53.572;10.170;2023-05-10T12:41:01;7.20;;;5.20;;
50605;SDS011;36557;53.572;10.170;2023-05-10T12:43:28;6.43;;;5.07;;
50605;SDS011;36557;53.572;10.170;2023-05-10T12:45:55;8.80;;;5.25;;
50605;SDS011;36557;53.572;10.170;2023-05-10T12:48:20;7.82;;;5.10;;
50605;SDS011;36557;53.572;10.170;2023-05-10T12:50:46;7.30;;;5.07;;
50605;SDS011;36557;53.572;10.170;2023-05-10T12:53:13;7.05;;;4.32;;
50605;SDS011;36557;53.572;10.170;2023-05-10T12:55:40;5.85;;;4.70;;
50605;SDS011;36557;53.572;10.170;2023-05-10T12:58:07;7.13;;;4.70;;
50605;SDS011;36557;53.572;10.170;2023-05-10T13:00:32;5.15;;;3.90;;
50605;SDS011;36557;53.572;10.170;2023-05-10T13:02:58;5.68;;;4.22;;
50605;SDS011;36557;53.572;10.170;2023-05-10T13:05:24;4.00;;;3.60;;
50605;SDS011;36557;53.572;10.170;2023-05-10T13:07:50;4.72;;;4.20;;
50605;SDS011;36557;53.572;10.170;2023-05-10T13:10:15;4.70;;;3.85;;
50605;SDS011;36557;53.572;10.170;2023-05-10T13:12:41;4.70;;;4.07;;
50605;SDS011;36557;53.572;10.170;2023-05-10T13:15:07;4.50;;;3.70;;
50605;SDS011;36557;53.572;10.170;2023-05-10T13:17:33;5.80;;;3.30;;
50605;SDS011;36557;53.572;10.170;2023-05-10T13:19:59;6.40;;;3.65;;
50605;SDS011;36557;53.572;10.170;2023-05-10T13:22:24;5.78;;;4.00;;
50605;SDS011;36557;53.572;10.170;2023-05-10T13:24:50;4.32;;;3.83;;
50605;SDS011;36557;53.572;10.170;2023-05-10T13:27:16;5.65;;;4.32;;
50605;SDS011;36557;53.572;10.170;2023-05-10T13:29:41;5.63;;;4.45;;
50605;SDS011;36557;53.572;10.170;2023-05-10T13:32:07;6.00;;;4.72;;
50605;SDS011;36557;53.572;10.170;2023-05-10T13:34:33;5.75;;;4.68;;
50605;SDS011;36557;53.572;10.170;2023-05-10T13:37:00;5.05;;;4.00;;
50605;SDS011;36557;53.572;10.170;2023-05-10T13:39:26;7.43;;;4.80;;
50605;SDS011;36557;53.572;10.170;2023-05-10T13:41:52;4.97;;;4.35;;
50605;SDS011;36557;53.572;10.170;2023-05-10T13:44:18;5.75;;;3.60;;
50605;SDS011;36557;53.572;10.170;2023-05-10T13:46:45;6.43;;;4.57;;
50605;SDS011;36557;53.572;10.170;2023-05-10T13:49:11;6.40;;;5.47;;
50605;SDS011;36557;53.572;10.170;2023-05-10T13:51:37;4.47;;;4.07;;
50605;SDS011;36557;53.572;10.170;2023-05-10T13:54:02;6.68;;;4.22;;
50605;SDS011;36557;53.572;10.170;2023-05-10T13:56:28;6.20;;;4.00;;
50605;SDS011;36557;53.572;10.170;2023-05-10T13:58:55;5.22;;;3.90;;
50605;SDS011;36557;53.572;10.170;2023-05-10T14:01:24;4.55;;;3.92;;
50605;SDS011;36557;53.572;10.170;2023-05-10T14:03:50;4.50;;;3.72;;
50605;SDS011;36557;53.572;10.170;2023-05-10T14:06:16;4.20;;;3.60;;
50605;SDS011;36557;53.572;10.170;2023-05-10T14:08:42;5.30;;;3.42;;
50605;SDS011;36557;53.572;10.170;2023-05-10T14:11:08;3.83;;;3.22;;
50605;SDS011;36557;53.572;10.170;2023-05-10T14:13:34;4.20;;;3.05;;
50605;SDS011;36557;53.572;10.170;2023-05-10T14:15:59;4.10;;;3.00;;
50605;SDS011;36557;53.572;10.170;2023-05-10T14:18:28;3.70;;;3.00;;
50605;SDS011;36557;53.572;10.170;2023-05-10T14:20:54;4.65;;;3.58;;
50605;SDS011;36557;53.572;10.170;2023-05-10T14:23:21;4.82;;;3.30;;
50605;SDS011;36557;53.572;10.170;2023-05-10T14:25:49;4.70;;;3.00;;
50605;SDS011;36557;53.572;10.170;2023-05-10T14:28:16;6.22;;;3.97;;
50605;SDS011;36557;53.572;10.170;2023-05-10T14:30:42;3.97;;;3.13;;
50605;SDS011;36557;53.572;10.170;2023-05-10T14:33:08;4.15;;;3.70;;
50605;SDS011;36557;53.572;10.170;2023-05-10T14:35:34;3.75;;;3.15;;
50605;SDS011;36557;53.572;10.170;2023-05-10T14:38:01;5.97;;;3.60;;
50605;SDS011;36557;53.572;10.170;2023-05-10T14:40:28;4.72;;;3.55;;
50605;SDS011;36557;53.572;10.170;2023-05-10T14:42:54;3.85;;;3.50;;
50605;SDS011;36557;53.572;10.170;2023-05-10T14:45:21;4.85;;;3.60;;
50605;SDS011;36557;53.572;10.170;2023-05-10T14:47:48;4.80;;;3.80;;
50605;SDS011;36557;53.572;10.170;2023-05-10T14:50:14;4.20;;;3.78;;
50605;SDS011;36557;53.572;10.170;2023-05-10T14:52:41;4.63;;;3.47;;
50605;SDS011;36557;53.572;10.170;2023-05-10T14:55:07;4.60;;;3.85;;
50605;SDS011;36557;53.572;10.170;2023-05-10T14:57:33;4.97;;;4.28;;
50605;SDS011;36557;53.572;10.170;2023-05-10T14:59:59;5.10;;;4.00;;
50605;SDS011;36557;53.572;10.170;2023-05-10T15:02:25;4.88;;;3.63;;
50605;SDS011;36557;53.572;10.170;2023-05-10T15:04:51;5.88;;;4.10;;
50605;SDS011;36557;53.572;10.170;2023-05-10T15:07:16;3.97;;;3.45;;